Portada
METAR-TAF:

METAR-TAF

Aeropuertos :

Gran Canaria, España

Aeropuerto de Gran Canaria

latitud: 27-56N, longitud: 015-23W, altitud: 23 m

Observación

El informe se hizo hace 34 minutos, a las 07:30 UTC
Viento 19 kt del norte-noreste
Temperatura 24°C
Humedad 69%
Presión 1014 hPa
Visibilidad 10 km o más
Escasas nubes a una altura de 2000 ft

METAR: GCLP 200730Z 02019KT 9999 FEW020 24/18 Q1014 NOSIG

Hora: 09:04 (08:04 UTC)

Pronóstico

El informe se hizo hace 6 horas y 4 minutos, a las 02:00 UTC
Pronóstico válido del 20 a las 03 UTC al 21 a las 03 UTC
Viento 25 kt del norte
Visibilidad 10 km o más
Escasas nubes a una altura de 2000 ft

TAF: GCLP 200200Z 2003/2103 01025KT 9999 FEW020 TX31/2013Z TN23/2006Z

Observaciones y pronósticos meteorológicos de más de 4000 aeropuertos (mensajes METAR y TAF).

Los puntos amarillos y rojos representan las estaciones disponibles.

Ponga el ratón en el punto deseado para ver el nombre de la estación.

Haga clic para ver las observaciones y los pronósticos meteorológicos.

Para cambiar el mapa : haga clic en los botones verdes con una cruz de color negro para hacer un zoom, en el botón verde con un guión para alejar o en las flechas verdes para mapas adyacentes.


METAR-TAF: